sensor_id;sensor_type;location;lat;lon;timestamp;pressure;altitude;pressure_sealevel;temperature;humidity
49943;BME280;36011;53.362;58.948;2023-05-07T00:02:34;96717.00;;;9.80;35.80
49943;BME280;36011;53.362;58.948;2023-05-07T00:05:40;96711.41;;;9.72;36.17
49943;BME280;36011;53.362;58.948;2023-05-07T00:08:44;96702.88;;;9.69;36.09
49943;BME280;36011;53.362;58.948;2023-05-07T00:11:51;96710.09;;;9.65;36.48
49943;BME280;36011;53.362;58.948;2023-05-07T00:14:52;96697.16;;;9.62;36.13
49943;BME280;36011;53.362;58.948;2023-05-07T00:17:55;96688.53;;;9.60;36.08
49943;BME280;36011;53.362;58.948;2023-05-07T00:20:58;96692.09;;;9.59;35.84
49943;BME280;36011;53.362;58.948;2023-05-07T00:24:01;96695.88;;;9.55;36.84
49943;BME280;36011;53.362;58.948;2023-05-07T00:27:02;96689.97;;;9.51;36.28
49943;BME280;36011;53.362;58.948;2023-05-07T00:30:03;96689.09;;;9.51;35.94
49943;BME280;36011;53.362;58.948;2023-05-07T00:33:09;96685.56;;;9.52;36.15
49943;BME280;36011;53.362;58.948;2023-05-07T00:36:10;96696.06;;;9.52;36.66
49943;BME280;36011;53.362;58.948;2023-05-07T00:39:11;96687.44;;;9.50;36.54
49943;BME280;36011;53.362;58.948;2023-05-07T00:42:12;96689.97;;;9.51;36.69
49943;BME280;36011;53.362;58.948;2023-05-07T00:45:16;96686.25;;;9.68;37.18
49943;BME280;36011;53.362;58.948;2023-05-07T00:48:20;96687.75;;;9.72;36.74
49943;BME280;36011;53.362;58.948;2023-05-07T00:51:21;96692.41;;;9.81;37.10
49943;BME280;36011;53.362;58.948;2023-05-07T00:54:22;96686.94;;;9.84;37.34
49943;BME280;36011;53.362;58.948;2023-05-07T00:57:26;96683.41;;;9.85;36.80
49943;BME280;36011;53.362;58.948;2023-05-07T01:00:29;96678.22;;;9.84;36.65
49943;BME280;36011;53.362;58.948;2023-05-07T01:03:35;96681.91;;;9.81;36.87
49943;BME280;36011;53.362;58.948;2023-05-07T01:06:41;96674.13;;;9.80;37.36
49943;BME280;36011;53.362;58.948;2023-05-07T01:09:45;96674.13;;;9.80;37.18
49943;BME280;36011;53.362;58.948;2023-05-07T01:12:50;96674.22;;;9.78;37.21
49943;BME280;36011;53.362;58.948;2023-05-07T01:15:52;96670.09;;;9.74;37.96
49943;BME280;36011;53.362;58.948;2023-05-07T01:18:55;96666.72;;;9.72;38.20
49943;BME280;36011;53.362;58.948;2023-05-07T01:21:58;96669.34;;;9.72;37.32
49943;BME280;36011;53.362;58.948;2023-05-07T01:25:02;96668.59;;;9.70;37.42
49943;BME280;36011;53.362;58.948;2023-05-07T01:28:04;96666.94;;;9.69;37.25
49943;BME280;36011;53.362;58.948;2023-05-07T01:31:06;96666.81;;;9.71;37.11
49943;BME280;36011;53.362;58.948;2023-05-07T01:34:12;96659.81;;;9.71;36.78
49943;BME280;36011;53.362;58.948;2023-05-07T01:37:16;96657.91;;;9.73;37.00
49943;BME280;36011;53.362;58.948;2023-05-07T01:40:17;96660.03;;;9.81;37.40
49943;BME280;36011;53.362;58.948;2023-05-07T01:43:19;96655.00;;;9.90;36.81
49943;BME280;36011;53.362;58.948;2023-05-07T01:46:21;96656.09;;;10.01;36.64
49943;BME280;36011;53.362;58.948;2023-05-07T01:49:23;96656.31;;;10.10;37.83
49943;BME280;36011;53.362;58.948;2023-05-07T01:52:24;96654.56;;;10.24;37.09
49943;BME280;36011;53.362;58.948;2023-05-07T01:55:25;96653.78;;;10.36;37.18
49943;BME280;36011;53.362;58.948;2023-05-07T01:58:27;96660.00;;;10.48;36.44
49943;BME280;36011;53.362;58.948;2023-05-07T02:01:28;96662.75;;;10.59;36.20
49943;BME280;36011;53.362;58.948;2023-05-07T02:04:29;96656.09;;;10.66;36.16
49943;BME280;36011;53.362;58.948;2023-05-07T02:07:33;96660.00;;;10.73;36.25
49943;BME280;36011;53.362;58.948;2023-05-07T02:10:37;96658.53;;;10.82;36.20
49943;BME280;36011;53.362;58.948;2023-05-07T02:13:42;96652.53;;;10.93;35.98
49943;BME280;36011;53.362;58.948;2023-05-07T02:16:43;96651.34;;;11.10;35.67
49943;BME280;36011;53.362;58.948;2023-05-07T02:19:46;96651.84;;;11.28;35.92
49943;BME280;36011;53.362;58.948;2023-05-07T02:23:10;96661.78;;;11.48;36.34
49943;BME280;36011;53.362;58.948;2023-05-07T02:26:11;96658.53;;;11.68;36.16
49943;BME280;36011;53.362;58.948;2023-05-07T02:29:12;96660.63;;;11.89;35.08
49943;BME280;36011;53.362;58.948;2023-05-07T02:32:17;96650.13;;;12.11;34.76
49943;BME280;36011;53.362;58.948;2023-05-07T02:35:21;96650.00;;;12.37;34.64
49943;BME280;36011;53.362;58.948;2023-05-07T02:38:22;96658.66;;;12.62;34.51
49943;BME280;36011;53.362;58.948;2023-05-07T02:41:24;96653.41;;;12.84;34.44
49943;BME280;36011;53.362;58.948;2023-05-07T02:44:25;96658.72;;;13.07;33.87
49943;BME280;36011;53.362;58.948;2023-05-07T02:47:30;96658.00;;;13.27;33.76
49943;BME280;36011;53.362;58.948;2023-05-07T02:50:34;96648.50;;;13.47;33.42
49943;BME280;36011;53.362;58.948;2023-05-07T02:53:38;96659.66;;;13.62;33.48
49943;BME280;36011;53.362;58.948;2023-05-07T02:56:39;96657.00;;;13.73;33.31
49943;BME280;36011;53.362;58.948;2023-05-07T02:59:46;96648.41;;;13.81;33.21
49943;BME280;36011;53.362;58.948;2023-05-07T03:02:49;96658.50;;;13.87;33.18
49943;BME280;36011;53.362;58.948;2023-05-07T03:05:52;96661.03;;;13.88;33.07
49943;BME280;36011;53.362;58.948;2023-05-07T03:08:57;96657.88;;;13.95;33.14
49943;BME280;36011;53.362;58.948;2023-05-07T03:12:01;96661.19;;;14.08;32.71
49943;BME280;36011;53.362;58.948;2023-05-07T03:15:02;96662.97;;;14.19;32.98
49943;BME280;36011;53.362;58.948;2023-05-07T03:18:05;96668.31;;;14.28;32.90
49943;BME280;36011;53.362;58.948;2023-05-07T03:21:08;96665.38;;;14.43;32.58
49943;BME280;36011;53.362;58.948;2023-05-07T03:24:12;96665.47;;;14.52;32.46
49943;BME280;36011;53.362;58.948;2023-05-07T03:27:16;96659.97;;;14.65;32.69
49943;BME280;36011;53.362;58.948;2023-05-07T03:30:17;96653.63;;;14.77;32.61
49943;BME280;36011;53.362;58.948;2023-05-07T03:33:20;96655.69;;;14.95;31.95
49943;BME280;36011;53.362;58.948;2023-05-07T03:36:24;96651.72;;;15.10;32.10
49943;BME280;36011;53.362;58.948;2023-05-07T03:39:34;96647.47;;;15.29;32.00
49943;BME280;36011;53.362;58.948;2023-05-07T03:42:37;96651.44;;;15.54;31.76
49943;BME280;36011;53.362;58.948;2023-05-07T03:45:38;96644.75;;;15.59;31.51
49943;BME280;36011;53.362;58.948;2023-05-07T03:48:41;96649.56;;;15.85;31.22
49943;BME280;36011;53.362;58.948;2023-05-07T03:51:43;96644.84;;;15.98;30.93
49943;BME280;36011;53.362;58.948;2023-05-07T03:54:43;96643.34;;;16.05;30.97
49943;BME280;36011;53.362;58.948;2023-05-07T03:57:44;96636.19;;;16.15;30.71
49943;BME280;36011;53.362;58.948;2023-05-07T04:00:48;96633.63;;;16.53;30.18
49943;BME280;36011;53.362;58.948;2023-05-07T04:03:52;96629.28;;;16.61;29.86
49943;BME280;36011;53.362;58.948;2023-05-07T04:06:53;96640.78;;;16.81;29.40
49943;BME280;36011;53.362;58.948;2023-05-07T04:09:54;96632.75;;;16.91;29.47
49943;BME280;36011;53.362;58.948;2023-05-07T04:12:58;96638.19;;;16.99;29.75
49943;BME280;36011;53.362;58.948;2023-05-07T04:16:03;96625.44;;;17.03;29.35
49943;BME280;36011;53.362;58.948;2023-05-07T04:19:05;96618.22;;;17.23;29.44
49943;BME280;36011;53.362;58.948;2023-05-07T04:22:06;96617.59;;;17.66;28.88
49943;BME280;36011;53.362;58.948;2023-05-07T04:25:09;96614.06;;;17.93;28.35
49943;BME280;36011;53.362;58.948;2023-05-07T04:28:20;96605.69;;;18.24;27.95
49943;BME280;36011;53.362;58.948;2023-05-07T04:31:23;96603.38;;;18.73;26.74
49943;BME280;36011;53.362;58.948;2023-05-07T04:34:26;96601.78;;;18.80;26.96
49943;BME280;36011;53.362;58.948;2023-05-07T04:37:31;96600.72;;;18.99;26.90
49943;BME280;36011;53.362;58.948;2023-05-07T04:40:38;96596.25;;;20.01;26.17
49943;BME280;36011;53.362;58.948;2023-05-07T04:43:41;96595.88;;;22.35;24.15
49943;BME280;36011;53.362;58.948;2023-05-07T04:46:49;96597.59;;;25.48;21.94
49943;BME280;36011;53.362;58.948;2023-05-07T04:49:52;96606.66;;;28.27;18.98
49943;BME280;36011;53.362;58.948;2023-05-07T04:52:55;96607.38;;;30.45;17.99
49943;BME280;36011;53.362;58.948;2023-05-07T04:55:58;96609.91;;;32.56;16.83
49943;BME280;36011;53.362;58.948;2023-05-07T04:59:00;96603.81;;;34.43;13.67
49943;BME280;36011;53.362;58.948;2023-05-07T05:02:06;96608.34;;;36.19;12.64
49943;BME280;36011;53.362;58.948;2023-05-07T05:05:09;96618.47;;;37.98;12.38
49943;BME280;36011;53.362;58.948;2023-05-07T05:08:10;96598.50;;;39.45;12.00
49943;BME280;36011;53.362;58.948;2023-05-07T05:11:14;96598.75;;;40.21;10.56
49943;BME280;36011;53.362;58.948;2023-05-07T05:14:20;96597.25;;;40.47;10.77
49943;BME280;36011;53.362;58.948;2023-05-07T05:17:21;96603.44;;;41.42;10.40
49943;BME280;36011;53.362;58.948;2023-05-07T05:20:24;96599.72;;;41.33;9.35
49943;BME280;36011;53.362;58.948;2023-05-07T05:23:26;96583.19;;;41.00;8.55
49943;BME280;36011;53.362;58.948;2023-05-07T05:26:29;96581.16;;;39.68;9.17
49943;BME280;36011;53.362;58.948;2023-05-07T05:29:31;96578.00;;;38.98;9.43
49943;BME280;36011;53.362;58.948;2023-05-07T05:32:34;96576.22;;;39.65;9.07
49943;BME280;36011;53.362;58.948;2023-05-07T05:35:36;96571.63;;;40.28;8.40
49943;BME280;36011;53.362;58.948;2023-05-07T05:38:37;96569.06;;;41.02;7.92
49943;BME280;36011;53.362;58.948;2023-05-07T05:41:41;96569.50;;;41.83;8.08
49943;BME280;36011;53.362;58.948;2023-05-07T05:44:42;96575.50;;;42.77;7.59
49943;BME280;36011;53.362;58.948;2023-05-07T05:47:43;96568.66;;;43.99;6.59
49943;BME280;36011;53.362;58.948;2023-05-07T05:50:46;96564.28;;;44.15;6.80
49943;BME280;36011;53.362;58.948;2023-05-07T05:53:49;96565.00;;;44.65;5.82
49943;BME280;36011;53.362;58.948;2023-05-07T05:56:53;96558.47;;;44.52;5.92
49943;BME280;36011;53.362;58.948;2023-05-07T05:59:57;96565.28;;;44.98;5.50
49943;BME280;36011;53.362;58.948;2023-05-07T06:02:58;96561.22;;;44.43;5.49
49943;BME280;36011;53.362;58.948;2023-05-07T06:06:04;96543.63;;;43.42;5.79
49943;BME280;36011;53.362;58.948;2023-05-07T06:09:07;96549.25;;;42.97;6.19
49943;BME280;36011;53.362;58.948;2023-05-07T06:12:08;96550.91;;;42.98;5.81
49943;BME280;36011;53.362;58.948;2023-05-07T06:15:12;96547.53;;;42.78;6.09
49943;BME280;36011;53.362;58.948;2023-05-07T06:18:17;96521.84;;;42.28;5.74
49943;BME280;36011;53.362;58.948;2023-05-07T06:21:19;96544.97;;;42.91;5.65
49943;BME280;36011;53.362;58.948;2023-05-07T06:24:24;96544.34;;;42.94;5.08
49943;BME280;36011;53.362;58.948;2023-05-07T06:27:26;96528.78;;;42.03;5.22
49943;BME280;36011;53.362;58.948;2023-05-07T06:30:31;96537.94;;;41.48;5.26
49943;BME280;36011;53.362;58.948;2023-05-07T06:33:32;96525.59;;;41.13;5.38
49943;BME280;36011;53.362;58.948;2023-05-07T06:36:37;96527.03;;;41.24;5.69
49943;BME280;36011;53.362;58.948;2023-05-07T06:39:43;96522.94;;;40.75;5.30
49943;BME280;36011;53.362;58.948;2023-05-07T06:42:46;96508.69;;;41.00;5.45
49943;BME280;36011;53.362;58.948;2023-05-07T06:45:51;96506.66;;;40.73;5.74
49943;BME280;36011;53.362;58.948;2023-05-07T06:48:54;96520.97;;;40.24;5.50
49943;BME280;36011;53.362;58.948;2023-05-07T06:51:59;96502.69;;;41.12;5.31
49943;BME280;36011;53.362;58.948;2023-05-07T06:55:08;96503.41;;;40.85;5.40
49943;BME280;36011;53.362;58.948;2023-05-07T06:58:13;96504.47;;;40.00;5.58
49943;BME280;36011;53.362;58.948;2023-05-07T07:01:14;96495.97;;;39.05;6.21
49943;BME280;36011;53.362;58.948;2023-05-07T07:04:18;96489.34;;;39.97;6.16
49943;BME280;36011;53.362;58.948;2023-05-07T07:07:21;96490.59;;;40.94;5.83
49943;BME280;36011;53.362;58.948;2023-05-07T07:10:25;96492.47;;;40.47;5.59
49943;BME280;36011;53.362;58.948;2023-05-07T07:13:28;96520.47;;;39.79;5.55
49943;BME280;36011;53.362;58.948;2023-05-07T07:16:32;96480.38;;;39.19;5.99
49943;BME280;36011;53.362;58.948;2023-05-07T07:19:38;96499.19;;;40.03;5.91
49943;BME280;36011;53.362;58.948;2023-05-07T07:22:45;96482.72;;;40.36;5.67
49943;BME280;36011;53.362;58.948;2023-05-07T07:25:48;96468.97;;;39.98;5.28
49943;BME280;36011;53.362;58.948;2023-05-07T07:28:56;96488.69;;;39.14;5.14
49943;BME280;36011;53.362;58.948;2023-05-07T07:31:59;96454.75;;;39.24;5.19
49943;BME280;36011;53.362;58.948;2023-05-07T07:35:01;96450.78;;;39.97;4.83
49943;BME280;36011;53.362;58.948;2023-05-07T07:38:05;96451.94;;;39.53;5.01
49943;BME280;36011;53.362;58.948;2023-05-07T07:41:07;96460.34;;;39.62;5.16
49943;BME280;36011;53.362;58.948;2023-05-07T07:44:09;96465.38;;;39.36;5.49
49943;BME280;36011;53.362;58.948;2023-05-07T07:47:13;96465.84;;;38.90;5.89
49943;BME280;36011;53.362;58.948;2023-05-07T07:50:17;96458.25;;;39.05;5.89
49943;BME280;36011;53.362;58.948;2023-05-07T07:53:22;96455.34;;;39.45;5.57
49943;BME280;36011;53.362;58.948;2023-05-07T07:56:25;96461.97;;;39.87;5.71
49943;BME280;36011;53.362;58.948;2023-05-07T07:59:26;96466.50;;;40.15;5.60
49943;BME280;36011;53.362;58.948;2023-05-07T08:02:27;96462.84;;;40.01;5.79
49943;BME280;36011;53.362;58.948;2023-05-07T08:05:31;96459.66;;;39.51;5.97
49943;BME280;36011;53.362;58.948;2023-05-07T08:08:32;96451.00;;;38.91;5.92
49943;BME280;36011;53.362;58.948;2023-05-07T08:11:36;96456.22;;;39.16;5.77
49943;BME280;36011;53.362;58.948;2023-05-07T08:14:37;96446.50;;;39.48;5.83
49943;BME280;36011;53.362;58.948;2023-05-07T08:17:41;96461.50;;;39.80;5.70
49943;BME280;36011;53.362;58.948;2023-05-07T08:20:46;96434.34;;;40.76;5.09
49943;BME280;36011;53.362;58.948;2023-05-07T08:23:49;96432.50;;;40.72;5.21
49943;BME280;36011;53.362;58.948;2023-05-07T08:26:53;96455.41;;;41.97;5.24
49943;BME280;36011;53.362;58.948;2023-05-07T08:29:54;96439.09;;;43.56;4.16
49943;BME280;36011;53.362;58.948;2023-05-07T08:32:58;96440.13;;;43.78;3.97
49943;BME280;36011;53.362;58.948;2023-05-07T08:36:04;96429.84;;;43.61;3.96
49943;BME280;36011;53.362;58.948;2023-05-07T08:39:05;96451.16;;;42.80;4.38
49943;BME280;36011;53.362;58.948;2023-05-07T08:42:06;96460.78;;;41.52;4.86
49943;BME280;36011;53.362;58.948;2023-05-07T08:45:08;96440.88;;;40.67;4.93
49943;BME280;36011;53.362;58.948;2023-05-07T08:48:16;96449.53;;;41.20;4.85
49943;BME280;36011;53.362;58.948;2023-05-07T08:51:20;96444.28;;;42.47;4.29
49943;BME280;36011;53.362;58.948;2023-05-07T08:54:22;96442.97;;;41.30;4.63
49943;BME280;36011;53.362;58.948;2023-05-07T08:57:29;96435.84;;;41.15;4.44
49943;BME280;36011;53.362;58.948;2023-05-07T09:00:30;96424.97;;;40.91;4.59
49943;BME280;36011;53.362;58.948;2023-05-07T09:03:31;96449.28;;;40.75;4.64
49943;BME280;36011;53.362;58.948;2023-05-07T09:06:35;96429.41;;;39.70;5.02
49943;BME280;36011;53.362;58.948;2023-05-07T09:09:43;96440.91;;;39.53;5.30
49943;BME280;36011;53.362;58.948;2023-05-07T09:12:49;96427.16;;;39.29;5.34
49943;BME280;36011;53.362;58.948;2023-05-07T09:15:56;96422.00;;;39.22;5.55
49943;BME280;36011;53.362;58.948;2023-05-07T09:18:58;96425.41;;;39.14;5.89
49943;BME280;36011;53.362;58.948;2023-05-07T09:22:02;96427.25;;;38.71;6.34
49943;BME280;36011;53.362;58.948;2023-05-07T09:25:05;96444.97;;;38.83;6.25
49943;BME280;36011;53.362;58.948;2023-05-07T09:28:11;96416.16;;;39.72;5.88
49943;BME280;36011;53.362;58.948;2023-05-07T09:31:14;96437.59;;;40.65;5.61
49943;BME280;36011;53.362;58.948;2023-05-07T09:34:16;96428.56;;;40.92;5.45
49943;BME280;36011;53.362;58.948;2023-05-07T09:37:22;96432.16;;;41.20;5.40
49943;BME280;36011;53.362;58.948;2023-05-07T09:40:26;96427.25;;;41.17;5.50
49943;BME280;36011;53.362;58.948;2023-05-07T09:43:36;96425.53;;;40.28;5.98
49943;BME280;36011;53.362;58.948;2023-05-07T09:46:45;96424.66;;;39.76;6.32
49943;BME280;36011;53.362;58.948;2023-05-07T09:49:48;96444.44;;;38.87;6.68
49943;BME280;36011;53.362;58.948;2023-05-07T09:52:56;96430.34;;;37.90;6.94
49943;BME280;36011;53.362;58.948;2023-05-07T09:56:02;96414.69;;;37.51;7.17
49943;BME280;36011;53.362;58.948;2023-05-07T09:59:04;96435.78;;;38.06;6.91
49943;BME280;36011;53.362;58.948;2023-05-07T10:02:07;96437.69;;;38.45;7.15
49943;BME280;36011;53.362;58.948;2023-05-07T10:05:12;96435.38;;;38.57;6.96
49943;BME280;36011;53.362;58.948;2023-05-07T10:08:13;96455.81;;;39.04;6.87
49943;BME280;36011;53.362;58.948;2023-05-07T10:11:19;96455.47;;;38.52;7.26
49943;BME280;36011;53.362;58.948;2023-05-07T10:14:24;96443.56;;;38.62;7.01
49943;BME280;36011;53.362;58.948;2023-05-07T10:17:26;96445.78;;;38.84;7.20
49943;BME280;36011;53.362;58.948;2023-05-07T10:20:27;96454.97;;;39.27;6.87
49943;BME280;36011;53.362;58.948;2023-05-07T10:23:28;96464.72;;;39.44;6.84
49943;BME280;36011;53.362;58.948;2023-05-07T10:26:33;96470.84;;;38.82;7.08
49943;BME280;36011;53.362;58.948;2023-05-07T10:32:53;96471.94;;;36.78;8.98
49943;BME280;36011;53.362;58.948;2023-05-07T10:35:59;96486.47;;;36.32;9.24
49943;BME280;36011;53.362;58.948;2023-05-07T10:39:05;96471.38;;;36.35;9.34
49943;BME280;36011;53.362;58.948;2023-05-07T10:42:11;96485.63;;;36.16;9.68
49943;BME280;36011;53.362;58.948;2023-05-07T10:45:13;96480.03;;;35.81;10.12
49943;BME280;36011;53.362;58.948;2023-05-07T10:48:17;96478.91;;;35.56;10.43
49943;BME280;36011;53.362;58.948;2023-05-07T10:51:21;96482.75;;;35.07;11.57
49943;BME280;36011;53.362;58.948;2023-05-07T10:54:22;96484.47;;;34.81;11.67
49943;BME280;36011;53.362;58.948;2023-05-07T10:57:33;96497.81;;;34.40;12.09
49943;BME280;36011;53.362;58.948;2023-05-07T11:00:40;96503.72;;;34.00;12.52
49943;BME280;36011;53.362;58.948;2023-05-07T11:04:12;96533.56;;;33.63;12.94
49943;BME280;36011;53.362;58.948;2023-05-07T11:10:22;96514.38;;;32.29;13.63
49943;BME280;36011;53.362;58.948;2023-05-07T11:13:45;96520.38;;;31.86;13.76
49943;BME280;36011;53.362;58.948;2023-05-07T11:16:47;96536.84;;;31.39;14.87
49943;BME280;36011;53.362;58.948;2023-05-07T11:19:51;96535.91;;;31.09;14.41
49943;BME280;36011;53.362;58.948;2023-05-07T11:22:59;96536.16;;;30.84;14.57
49943;BME280;36011;53.362;58.948;2023-05-07T11:26:09;96543.78;;;30.64;15.06
49943;BME280;36011;53.362;58.948;2023-05-07T11:29:13;96549.06;;;30.35;14.60
49943;BME280;36011;53.362;58.948;2023-05-07T11:32:17;96557.69;;;30.14;14.83
49943;BME280;36011;53.362;58.948;2023-05-07T11:35:22;96563.38;;;29.64;14.54
49943;BME280;36011;53.362;58.948;2023-05-07T11:38:29;96556.72;;;29.04;14.96
49943;BME280;36011;53.362;58.948;2023-05-07T11:41:36;96573.00;;;28.98;15.29
49943;BME280;36011;53.362;58.948;2023-05-07T11:44:43;96576.28;;;29.06;15.57
49943;BME280;36011;53.362;58.948;2023-05-07T11:47:49;96576.53;;;29.05;16.05
49943;BME280;36011;53.362;58.948;2023-05-07T11:54:00;96588.78;;;28.26;17.24
49943;BME280;36011;53.362;58.948;2023-05-07T11:57:06;96606.69;;;27.75;17.86
49943;BME280;36011;53.362;58.948;2023-05-07T12:00:08;96609.91;;;27.39;18.82
49943;BME280;36011;53.362;58.948;2023-05-07T12:03:14;96616.22;;;26.93;18.94
49943;BME280;36011;53.362;58.948;2023-05-07T12:06:17;96642.72;;;26.49;20.06
49943;BME280;36011;53.362;58.948;2023-05-07T12:09:18;96606.34;;;26.12;20.14
49943;BME280;36011;53.362;58.948;2023-05-07T12:12:22;96631.78;;;25.89;20.69
49943;BME280;36011;53.362;58.948;2023-05-07T12:15:23;96638.97;;;25.34;21.34
49943;BME280;36011;53.362;58.948;2023-05-07T12:18:24;96618.19;;;25.63;21.39
49943;BME280;36011;53.362;58.948;2023-05-07T12:21:26;96618.81;;;26.13;20.61
49943;BME280;36011;53.362;58.948;2023-05-07T12:24:41;96627.28;;;26.10;21.55
49943;BME280;36011;53.362;58.948;2023-05-07T12:27:44;96651.47;;;25.48;21.98
49943;BME280;36011;53.362;58.948;2023-05-07T12:30:48;96660.06;;;24.81;22.72
49943;BME280;36011;53.362;58.948;2023-05-07T12:33:51;96661.97;;;24.87;22.62
49943;BME280;36011;53.362;58.948;2023-05-07T12:36:57;96655.28;;;25.04;22.64
49943;BME280;36011;53.362;58.948;2023-05-07T12:40:08;96673.91;;;24.78;22.65
49943;BME280;36011;53.362;58.948;2023-05-07T12:43:16;96666.31;;;24.88;22.74
49943;BME280;36011;53.362;58.948;2023-05-07T12:46:22;96706.59;;;24.75;22.80
49943;BME280;36011;53.362;58.948;2023-05-07T12:49:26;96693.63;;;24.85;23.21
49943;BME280;36011;53.362;58.948;2023-05-07T12:52:30;96703.25;;;24.51;23.64
49943;BME280;36011;53.362;58.948;2023-05-07T12:55:44;96709.63;;;24.14;24.52
49943;BME280;36011;53.362;58.948;2023-05-07T12:58:48;96716.63;;;23.64;25.33
49943;BME280;36011;53.362;58.948;2023-05-07T13:01:54;96724.63;;;23.19;25.74
49943;BME280;36011;53.362;58.948;2023-05-07T13:05:01;96735.78;;;22.62;27.01
49943;BME280;36011;53.362;58.948;2023-05-07T13:08:07;96740.75;;;22.11;27.47
49943;BME280;36011;53.362;58.948;2023-05-07T13:11:15;96726.28;;;21.89;27.72
49943;BME280;36011;53.362;58.948;2023-05-07T13:14:18;96731.81;;;21.79;28.01
49943;BME280;36011;53.362;58.948;2023-05-07T13:17:26;96734.63;;;21.38;28.88
49943;BME280;36011;53.362;58.948;2023-05-07T13:20:29;96732.63;;;20.91;29.17
49943;BME280;36011;53.362;58.948;2023-05-07T13:23:30;96736.66;;;20.71;29.89
49943;BME280;36011;53.362;58.948;2023-05-07T13:26:34;96742.25;;;20.51;29.50
49943;BME280;36011;53.362;58.948;2023-05-07T13:29:37;96733.56;;;20.33;30.18
49943;BME280;36011;53.362;58.948;2023-05-07T13:32:40;96747.53;;;20.10;30.67
49943;BME280;36011;53.362;58.948;2023-05-07T13:35:44;96763.84;;;19.99;30.56
49943;BME280;36011;53.362;58.948;2023-05-07T13:38:47;96762.41;;;19.79;30.89
49943;BME280;36011;53.362;58.948;2023-05-07T13:41:49;96766.22;;;20.10;30.56
49943;BME280;36011;53.362;58.948;2023-05-07T13:44:52;96769.81;;;20.44;30.57
49943;BME280;36011;53.362;58.948;2023-05-07T13:47:53;96767.13;;;20.44;30.29
49943;BME280;36011;53.362;58.948;2023-05-07T13:50:56;96782.00;;;20.46;30.54
49943;BME280;36011;53.362;58.948;2023-05-07T13:54:00;96788.28;;;20.21;30.70
49943;BME280;36011;53.362;58.948;2023-05-07T13:57:02;96794.34;;;19.62;31.19
49943;BME280;36011;53.362;58.948;2023-05-07T14:00:03;96800.19;;;19.40;31.67
49943;BME280;36011;53.362;58.948;2023-05-07T14:03:05;96795.22;;;19.01;31.89
49943;BME280;36011;53.362;58.948;2023-05-07T14:06:11;96801.16;;;18.95;32.39
49943;BME280;36011;53.362;58.948;2023-05-07T14:09:15;96805.06;;;18.82;32.22
49943;BME280;36011;53.362;58.948;2023-05-07T14:12:18;96806.94;;;18.72;32.60
49943;BME280;36011;53.362;58.948;2023-05-07T14:15:21;96827.13;;;18.29;33.02
49943;BME280;36011;53.362;58.948;2023-05-07T14:18:25;96832.97;;;18.05;33.41
49943;BME280;36011;53.362;58.948;2023-05-07T14:21:29;96838.13;;;17.79;33.76
49943;BME280;36011;53.362;58.948;2023-05-07T14:24:31;96834.72;;;17.30;34.31
49943;BME280;36011;53.362;58.948;2023-05-07T14:27:32;96847.88;;;17.02;34.94
49943;BME280;36011;53.362;58.948;2023-05-07T14:30:35;96855.72;;;16.85;35.55
49943;BME280;36011;53.362;58.948;2023-05-07T14:33:36;96842.78;;;16.60;35.64
49943;BME280;36011;53.362;58.948;2023-05-07T14:36:39;96847.94;;;16.43;36.22
49943;BME280;36011;53.362;58.948;2023-05-07T14:39:45;96859.00;;;16.57;36.46
49943;BME280;36011;53.362;58.948;2023-05-07T14:42:46;96863.66;;;16.25;36.45
49943;BME280;36011;53.362;58.948;2023-05-07T14:45:47;96851.09;;;16.27;36.76
49943;BME280;36011;53.362;58.948;2023-05-07T14:48:50;96867.22;;;16.04;36.97
49943;BME280;36011;53.362;58.948;2023-05-07T14:51:56;96873.25;;;15.76;37.72
49943;BME280;36011;53.362;58.948;2023-05-07T14:54:59;96875.94;;;15.64;37.60
49943;BME280;36011;53.362;58.948;2023-05-07T14:58:03;96887.94;;;15.38;37.68
49943;BME280;36011;53.362;58.948;2023-05-07T15:01:07;96891.16;;;15.20;38.17
49943;BME280;36011;53.362;58.948;2023-05-07T15:04:12;96896.09;;;15.14;38.79
49943;BME280;36011;53.362;58.948;2023-05-07T15:07:16;96900.91;;;14.88;39.00
49943;BME280;36011;53.362;58.948;2023-05-07T15:10:18;96911.06;;;14.60;39.58
49943;BME280;36011;53.362;58.948;2023-05-07T15:13:20;96922.88;;;14.45;39.85
49943;BME280;36011;53.362;58.948;2023-05-07T15:16:21;96928.91;;;14.13;40.04
49943;BME280;36011;53.362;58.948;2023-05-07T15:19:25;96935.38;;;13.86;39.83
49943;BME280;36011;53.362;58.948;2023-05-07T15:22:29;96949.53;;;13.63;40.71
49943;BME280;36011;53.362;58.948;2023-05-07T15:25:33;96944.41;;;13.37;40.67
49943;BME280;36011;53.362;58.948;2023-05-07T15:28:36;96959.38;;;13.13;41.72
49943;BME280;36011;53.362;58.948;2023-05-07T15:31:38;96966.81;;;13.08;42.22
49943;BME280;36011;53.362;58.948;2023-05-07T15:34:44;96974.69;;;12.59;42.49
49943;BME280;36011;53.362;58.948;2023-05-07T15:37:45;96990.44;;;12.61;43.04
49943;BME280;36011;53.362;58.948;2023-05-07T15:40:48;96983.69;;;12.44;42.66
49943;BME280;36011;53.362;58.948;2023-05-07T15:43:51;97008.94;;;11.97;43.61
49943;BME280;36011;53.362;58.948;2023-05-07T15:46:55;96996.31;;;11.62;44.22
49943;BME280;36011;53.362;58.948;2023-05-07T15:50:01;97016.28;;;11.27;44.30
49943;BME280;36011;53.362;58.948;2023-05-07T15:53:05;97026.16;;;10.96;44.90
49943;BME280;36011;53.362;58.948;2023-05-07T15:56:08;97041.78;;;10.85;44.50
49943;BME280;36011;53.362;58.948;2023-05-07T15:59:11;97055.00;;;10.56;44.82
49943;BME280;36011;53.362;58.948;2023-05-07T16:02:12;97075.84;;;10.30;44.83
49943;BME280;36011;53.362;58.948;2023-05-07T16:05:14;97074.09;;;10.15;45.29
49943;BME280;36011;53.362;58.948;2023-05-07T16:08:15;97087.94;;;9.88;45.47
49943;BME280;36011;53.362;58.948;2023-05-07T16:11:17;97102.00;;;9.87;45.21
49943;BME280;36011;53.362;58.948;2023-05-07T16:14:18;97108.69;;;9.63;45.35
49943;BME280;36011;53.362;58.948;2023-05-07T16:17:21;97101.78;;;9.30;45.52